createdAt,value
2022-12-25T00:01:45.744Z,11.41
2022-12-25T00:04:13.474Z,11.54
2022-12-25T00:06:41.176Z,11.82
2022-12-25T00:09:08.867Z,12.00
2022-12-25T00:11:36.595Z,12.07
2022-12-25T00:14:04.414Z,12.08
2022-12-25T00:16:32.163Z,11.85
2022-12-25T00:19:01.259Z,11.90
2022-12-25T00:21:29.759Z,11.91
2022-12-25T00:23:59.162Z,11.96
2022-12-25T00:26:28.391Z,11.62
2022-12-25T00:28:57.919Z,11.39
2022-12-25T00:31:26.785Z,11.30
2022-12-25T00:33:54.615Z,11.26
2022-12-25T00:36:24.447Z,11.38
2022-12-25T00:38:52.213Z,11.48
2022-12-25T00:41:42.942Z,11.63
2022-12-25T00:44:13.788Z,11.37
2022-12-25T00:46:41.949Z,11.34
2022-12-25T00:49:10.239Z,11.41
2022-12-25T00:51:39.454Z,11.45
2022-12-25T00:54:07.459Z,11.25
2022-12-25T00:56:35.669Z,11.03
2022-12-25T00:59:03.370Z,11.16
2022-12-25T01:01:31.195Z,10.88
2022-12-25T01:03:59.388Z,10.76
2022-12-25T01:06:27.749Z,10.39
2022-12-25T01:09:14.750Z,10.68
2022-12-25T01:11:42.580Z,10.76
2022-12-25T01:14:10.788Z,10.84
2022-12-25T01:16:38.870Z,10.95
2022-12-25T01:19:06.791Z,11.17
2022-12-25T01:21:34.470Z,11.28
2022-12-25T01:24:03.570Z,10.66
2022-12-25T01:26:31.357Z,10.86
2022-12-25T01:28:59.160Z,11.29
2022-12-25T01:31:27.034Z,11.44
2022-12-25T01:33:54.811Z,11.45
2022-12-25T01:36:24.494Z,11.43
2022-12-25T01:38:53.861Z,11.55
2022-12-25T01:41:25.728Z,11.67
2022-12-25T01:44:00.935Z,11.39
2022-12-25T01:46:29.072Z,11.12
2022-12-25T01:49:00.039Z,11.09
2022-12-25T01:51:31.878Z,11.22
2022-12-25T01:54:04.560Z,10.98
2022-12-25T01:56:37.389Z,10.92
2022-12-25T01:59:06.865Z,10.91
2022-12-25T02:01:35.277Z,11.12
2022-12-25T02:04:09.542Z,11.36
2022-12-25T02:06:37.306Z,11.34
2022-12-25T02:09:05.259Z,11.38
2022-12-25T02:11:56.965Z,11.49
2022-12-25T02:14:25.958Z,11.34
2022-12-25T02:17:10.304Z,11.00
2022-12-25T02:20:02.435Z,10.83
2022-12-25T02:22:41.281Z,10.94
2022-12-25T02:25:26.148Z,10.97
2022-12-25T02:28:06.524Z,11.03
2022-12-25T02:30:40.066Z,11.00
2022-12-25T02:33:31.420Z,10.63
2022-12-25T02:36:03.930Z,10.78
2022-12-25T02:38:36.222Z,10.82
2022-12-25T02:41:08.354Z,10.91
2022-12-25T02:44:00.235Z,11.29
2022-12-25T02:46:48.481Z,11.55
2022-12-25T02:49:37.842Z,11.33
2022-12-25T02:52:36.202Z,11.22
2022-12-25T02:55:26.046Z,11.44
2022-12-25T02:58:14.878Z,11.33
2022-12-25T03:01:05.272Z,10.96
2022-12-25T03:03:53.686Z,10.60
2022-12-25T03:06:41.584Z,10.50
2022-12-25T03:09:29.020Z,10.61
2022-12-25T03:12:09.789Z,10.38
2022-12-25T03:14:55.170Z,10.09
2022-12-25T03:17:25.506Z,10.08
2022-12-25T03:20:10.112Z,9.85
2022-12-25T03:22:56.335Z,9.81
2022-12-25T03:25:42.220Z,9.60
2022-12-25T03:28:09.935Z,9.41
2022-12-25T03:31:03.266Z,9.87
2022-12-25T03:33:46.660Z,9.95
2022-12-25T03:36:18.752Z,9.84
2022-12-25T03:39:21.796Z,9.40
2022-12-25T03:42:11.520Z,9.43
2022-12-25T03:45:00.167Z,9.50
2022-12-25T03:47:50.189Z,9.40
2022-12-25T03:50:42.364Z,9.28
2022-12-25T03:53:31.833Z,9.46
2022-12-25T03:56:26.453Z,9.52
2022-12-25T03:59:19.321Z,9.40
2022-12-25T04:02:08.687Z,9.41
2022-12-25T04:04:54.287Z,9.70
2022-12-25T04:07:40.722Z,9.67
2022-12-25T04:10:27.127Z,9.77
2022-12-25T04:13:12.557Z,9.79
2022-12-25T04:15:58.048Z,9.59
2022-12-25T04:18:43.360Z,9.61
2022-12-25T04:21:28.596Z,9.76
2022-12-25T04:24:17.633Z,9.87
2022-12-25T04:27:03.025Z,9.97
2022-12-25T04:29:48.561Z,9.70
2022-12-25T04:32:33.605Z,9.96
2022-12-25T04:35:19.054Z,10.06
2022-12-25T04:37:46.866Z,10.29
2022-12-25T04:40:16.319Z,9.94
2022-12-25T04:42:44.163Z,9.88
2022-12-25T04:45:12.527Z,9.95
2022-12-25T04:47:40.280Z,10.01
2022-12-25T04:50:08.946Z,9.89
2022-12-25T04:52:38.108Z,9.92
2022-12-25T04:55:06.887Z,10.20
2022-12-25T04:57:36.221Z,9.99
2022-12-25T05:00:04.968Z,10.00
2022-12-25T05:02:33.000Z,10.18
2022-12-25T05:05:00.840Z,9.83
2022-12-25T05:07:28.577Z,9.94
2022-12-25T05:09:56.291Z,10.01
2022-12-25T05:12:24.004Z,10.02
2022-12-25T05:14:53.036Z,9.78
2022-12-25T05:17:20.720Z,9.34
2022-12-25T05:19:48.371Z,9.55
2022-12-25T05:22:16.113Z,9.68
2022-12-25T05:24:43.837Z,9.76
2022-12-25T05:27:11.596Z,9.70
2022-12-25T05:29:39.292Z,9.91
2022-12-25T05:32:08.569Z,9.94
2022-12-25T05:34:36.231Z,9.86
2022-12-25T05:37:03.933Z,10.19
2022-12-25T05:39:31.746Z,10.33
2022-12-25T05:41:59.533Z,9.81
2022-12-25T05:44:27.237Z,9.94
2022-12-25T05:46:54.981Z,9.95
2022-12-25T05:49:24.157Z,10.02
2022-12-25T05:51:51.838Z,10.14
2022-12-25T05:54:19.485Z,10.16
2022-12-25T05:56:47.371Z,9.80
2022-12-25T05:59:15.115Z,9.84
2022-12-25T06:01:42.904Z,10.28
2022-12-25T06:04:12.991Z,10.09
2022-12-25T06:06:42.614Z,10.09
2022-12-25T06:09:12.301Z,9.89
2022-12-25T06:11:40.102Z,9.92
2022-12-25T06:14:08.058Z,10.32
2022-12-25T06:16:38.276Z,10.29
2022-12-25T06:19:06.767Z,10.15
2022-12-25T06:21:35.100Z,10.43
2022-12-25T06:24:04.680Z,10.59
2022-12-25T06:26:32.454Z,10.95
2022-12-25T06:29:00.158Z,11.07
2022-12-25T06:31:27.933Z,11.41
2022-12-25T06:33:56.183Z,11.05
2022-12-25T06:36:25.773Z,11.35
2022-12-25T06:38:54.633Z,11.60
2022-12-25T06:41:25.426Z,11.77
2022-12-25T06:43:55.168Z,11.70
2022-12-25T06:46:23.751Z,11.20
2022-12-25T06:48:51.870Z,11.44
2022-12-25T06:51:20.854Z,11.52
2022-12-25T06:53:48.946Z,11.46
2022-12-25T06:56:19.163Z,11.57
2022-12-25T06:58:49.866Z,11.31
2022-12-25T07:01:21.713Z,11.40
2022-12-25T07:03:52.368Z,11.38
2022-12-25T07:06:20.222Z,11.50
2022-12-25T07:08:47.923Z,11.46
2022-12-25T07:11:15.860Z,11.41
2022-12-25T07:13:43.617Z,11.40
2022-12-25T07:16:13.802Z,11.38
2022-12-25T07:18:42.493Z,11.20
2022-12-25T07:21:12.917Z,11.28
2022-12-25T07:23:41.310Z,11.11
2022-12-25T07:26:11.766Z,11.33
2022-12-25T07:28:39.758Z,11.20
2022-12-25T07:31:10.621Z,11.12
2022-12-25T07:33:39.865Z,10.99
2022-12-25T07:36:10.191Z,10.90
2022-12-25T07:38:40.990Z,10.76
2022-12-25T07:41:09.552Z,10.64
2022-12-25T07:43:37.441Z,10.64
2022-12-25T07:46:05.984Z,10.92
2022-12-25T07:48:33.829Z,10.97
2022-12-25T07:51:05.005Z,11.47
2022-12-25T07:53:33.163Z,11.49
2022-12-25T07:56:02.150Z,11.14
2022-12-25T07:58:30.184Z,10.92
2022-12-25T08:01:04.105Z,10.77
2022-12-25T08:03:32.148Z,11.02
2022-12-25T08:06:02.824Z,11.31
2022-12-25T08:08:30.887Z,11.37
2022-12-25T08:10:58.748Z,11.27
2022-12-25T08:13:26.779Z,11.07
2022-12-25T08:15:58.326Z,11.43
2022-12-25T08:18:29.937Z,11.55
2022-12-25T08:20:58.617Z,11.05
2022-12-25T08:23:27.652Z,11.45
2022-12-25T08:26:04.440Z,11.14
2022-12-25T08:28:34.077Z,11.32
2022-12-25T08:31:07.731Z,11.54
2022-12-25T08:33:36.850Z,11.72
2022-12-25T08:36:06.608Z,11.74
2022-12-25T08:38:35.952Z,11.85
2022-12-25T08:41:03.881Z,11.42
2022-12-25T08:43:31.589Z,11.13
2022-12-25T08:45:59.423Z,11.24
2022-12-25T08:48:29.051Z,11.52
2022-12-25T08:50:57.274Z,11.50
2022-12-25T08:53:25.420Z,11.92
2022-12-25T08:55:59.676Z,12.26
2022-12-25T08:58:28.393Z,12.09
2022-12-25T09:00:57.005Z,12.20
2022-12-25T09:03:25.447Z,12.75
2022-12-25T09:05:54.222Z,12.93
2022-12-25T09:08:22.720Z,13.32
2022-12-25T09:10:50.469Z,13.78
2022-12-25T09:13:19.634Z,14.18
2022-12-25T09:15:47.326Z,14.31
2022-12-25T09:18:15.256Z,14.76
2022-12-25T09:20:42.970Z,15.14
2022-12-25T09:23:14.129Z,15.51
2022-12-25T09:25:42.480Z,15.72
2022-12-25T09:28:10.216Z,15.91
2022-12-25T09:30:39.448Z,16.15
2022-12-25T09:33:07.391Z,16.31
2022-12-25T09:35:35.586Z,16.46
2022-12-25T09:38:03.401Z,16.52
2022-12-25T09:40:32.762Z,16.92
2022-12-25T09:43:03.040Z,17.11
2022-12-25T09:45:34.948Z,17.45
2022-12-25T09:48:05.037Z,17.52
2022-12-25T09:50:42.141Z,18.11
2022-12-25T09:53:15.872Z,18.62
2022-12-25T09:56:00.314Z,18.96
2022-12-25T09:58:27.994Z,18.97
2022-12-25T10:01:04.459Z,18.87
2022-12-25T10:03:48.977Z,18.85
2022-12-25T10:06:21.930Z,18.77
2022-12-25T10:09:18.353Z,18.78
2022-12-25T10:11:59.161Z,18.75
2022-12-25T10:14:36.813Z,18.77
2022-12-25T10:17:23.602Z,18.67
2022-12-25T10:19:59.773Z,18.24
2022-12-25T10:22:33.075Z,17.45
2022-12-25T10:25:03.433Z,17.20
2022-12-25T10:27:35.325Z,17.36
2022-12-25T10:30:07.017Z,17.81
2022-12-25T10:32:34.975Z,18.16
2022-12-25T10:35:04.654Z,17.69
2022-12-25T10:37:32.438Z,17.23
2022-12-25T10:40:00.283Z,16.90
2022-12-25T10:42:37.001Z,17.01
2022-12-25T10:45:07.839Z,16.17
2022-12-25T10:47:39.090Z,16.32
2022-12-25T10:50:12.783Z,16.09
2022-12-25T10:52:55.857Z,15.63
2022-12-25T10:55:28.850Z,15.77
2022-12-25T10:57:58.557Z,16.52
2022-12-25T11:00:28.488Z,17.09
2022-12-25T11:02:56.654Z,18.34
2022-12-25T11:05:29.153Z,18.65
2022-12-25T11:07:59.411Z,19.51
2022-12-25T11:10:31.133Z,19.36
2022-12-25T11:13:00.051Z,19.03
2022-12-25T11:15:37.963Z,18.54
2022-12-25T11:18:17.967Z,18.87
2022-12-25T11:20:51.451Z,18.92
2022-12-25T11:23:20.613Z,18.71
2022-12-25T11:25:56.275Z,18.30
2022-12-25T11:28:25.184Z,17.68
2022-12-25T11:30:58.147Z,17.96
2022-12-25T11:33:30.050Z,17.63
2022-12-25T11:36:04.064Z,17.65
2022-12-25T11:38:31.684Z,17.49
2022-12-25T11:41:02.807Z,16.88
2022-12-25T11:43:37.446Z,16.60
2022-12-25T11:46:12.986Z,16.34
2022-12-25T11:48:45.225Z,16.28
2022-12-25T11:51:16.571Z,16.14
2022-12-25T11:53:48.347Z,15.90
2022-12-25T11:56:19.809Z,16.29
2022-12-25T11:58:50.807Z,16.43
2022-12-25T12:01:27.545Z,16.93
2022-12-25T12:03:56.108Z,17.40
2022-12-25T12:06:33.730Z,18.17
2022-12-25T12:09:13.152Z,18.09
2022-12-25T12:11:47.147Z,17.60
2022-12-25T12:14:23.666Z,17.89
2022-12-25T12:16:51.486Z,18.22
2022-12-25T12:19:27.819Z,18.66
2022-12-25T12:21:59.886Z,18.97
2022-12-25T12:24:32.205Z,19.42
2022-12-25T12:27:05.465Z,20.39
2022-12-25T12:29:39.886Z,20.13
2022-12-25T12:32:25.264Z,20.93
2022-12-25T12:34:53.212Z,21.03
2022-12-25T12:37:29.983Z,20.63
2022-12-25T12:39:58.361Z,21.03
2022-12-25T12:42:28.410Z,21.12
2022-12-25T12:44:58.261Z,20.09
2022-12-25T12:47:31.204Z,19.21
2022-12-25T12:50:01.623Z,19.41
2022-12-25T12:52:36.018Z,20.23
2022-12-25T12:55:06.750Z,20.51
2022-12-25T12:57:39.244Z,20.95
2022-12-25T13:00:09.981Z,20.61
2022-12-25T13:03:13.764Z,19.48
2022-12-25T13:05:48.072Z,19.55
2022-12-25T13:08:29.807Z,20.16
2022-12-25T13:11:08.834Z,20.79
2022-12-25T13:13:40.323Z,21.02
2022-12-25T13:16:17.842Z,21.50
2022-12-25T13:18:46.051Z,21.33
2022-12-25T13:21:18.663Z,20.55
2022-12-25T13:23:47.690Z,21.00
2022-12-25T13:26:17.566Z,20.88
2022-12-25T13:28:47.326Z,21.14
2022-12-25T13:31:19.242Z,21.04
2022-12-25T13:33:49.992Z,21.09
2022-12-25T13:36:18.151Z,21.21
2022-12-25T13:38:49.227Z,21.05
2022-12-25T13:41:43.427Z,20.62
2022-12-25T13:44:19.554Z,20.64
2022-12-25T13:46:47.452Z,20.58
2022-12-25T13:49:17.383Z,19.94
2022-12-25T13:51:45.728Z,20.11
2022-12-25T13:54:17.177Z,20.71
2022-12-25T13:56:49.421Z,21.33
2022-12-25T13:59:19.834Z,21.17
2022-12-25T14:01:48.745Z,20.28
2022-12-25T14:04:18.770Z,19.87
2022-12-25T14:06:46.574Z,19.03
2022-12-25T14:09:16.354Z,19.61
2022-12-25T14:11:46.622Z,18.96
2022-12-25T14:14:19.648Z,19.21
2022-12-25T14:16:49.794Z,18.61
2022-12-25T14:19:35.743Z,19.68
2022-12-25T14:22:07.484Z,19.96
2022-12-25T14:24:36.560Z,17.62
2022-12-25T14:27:07.124Z,17.69
2022-12-25T14:29:40.000Z,18.38
2022-12-25T14:32:11.393Z,17.52
2022-12-25T14:34:39.285Z,17.74
2022-12-25T14:37:14.239Z,18.13
2022-12-25T14:39:47.075Z,17.47
2022-12-25T14:42:21.399Z,18.07
2022-12-25T14:44:59.766Z,17.39
2022-12-25T14:47:28.517Z,17.53
2022-12-25T14:49:56.745Z,18.03
2022-12-25T14:52:27.810Z,18.05
2022-12-25T14:55:00.193Z,17.81
2022-12-25T14:57:31.520Z,17.86
2022-12-25T15:00:02.666Z,17.32
2022-12-25T15:02:46.564Z,15.65
2022-12-25T15:05:35.249Z,16.18
2022-12-25T15:08:22.029Z,16.00
2022-12-25T15:11:01.555Z,15.35
2022-12-25T15:13:31.653Z,15.26
2022-12-25T15:16:04.795Z,15.03
2022-12-25T15:18:39.191Z,14.99
2022-12-25T15:21:06.997Z,14.89
2022-12-25T15:23:34.894Z,14.75
2022-12-25T15:26:05.500Z,14.68
2022-12-25T15:28:33.474Z,15.18
2022-12-25T15:31:01.270Z,14.61
2022-12-25T15:33:29.085Z,14.80
2022-12-25T15:35:56.785Z,14.84
2022-12-25T15:38:24.538Z,15.15
2022-12-25T15:40:52.808Z,14.87
2022-12-25T15:43:40.023Z,14.71
2022-12-25T15:46:10.216Z,14.84
2022-12-25T15:48:37.995Z,13.79
2022-12-25T15:51:05.944Z,13.62
2022-12-25T15:53:33.761Z,14.24
2022-12-25T15:56:01.466Z,14.39
2022-12-25T15:58:30.534Z,14.50
2022-12-25T16:00:58.266Z,14.20
2022-12-25T16:03:26.175Z,14.03
2022-12-25T16:05:54.657Z,14.62
2022-12-25T16:08:22.878Z,13.94
2022-12-25T16:10:51.071Z,14.73
2022-12-25T16:13:18.872Z,14.43
2022-12-25T16:15:47.911Z,13.97
2022-12-25T16:18:15.825Z,13.97
2022-12-25T16:20:43.577Z,13.90
2022-12-25T16:23:11.339Z,13.92
2022-12-25T16:25:39.151Z,13.72
2022-12-25T16:28:09.653Z,13.89
2022-12-25T16:30:37.634Z,13.87
2022-12-25T16:33:07.828Z,13.75
2022-12-25T16:35:35.839Z,14.10
2022-12-25T16:38:03.867Z,15.15
2022-12-25T16:40:32.926Z,15.70
2022-12-25T16:43:01.130Z,15.65
2022-12-25T16:45:29.109Z,15.65
2022-12-25T16:47:57.438Z,14.84
2022-12-25T16:50:26.490Z,14.80
2022-12-25T16:52:54.198Z,14.59
2022-12-25T16:55:27.748Z,14.28
2022-12-25T16:57:57.684Z,14.61
2022-12-25T17:00:25.719Z,13.97
2022-12-25T17:02:53.829Z,13.95
2022-12-25T17:05:21.843Z,14.56
2022-12-25T17:07:51.414Z,14.07
2022-12-25T17:10:19.752Z,14.26
2022-12-25T17:12:47.575Z,14.88
2022-12-25T17:15:15.583Z,14.52
2022-12-25T17:17:43.380Z,14.42
2022-12-25T17:20:13.709Z,14.19
2022-12-25T17:22:41.485Z,13.36
2022-12-25T17:25:11.098Z,13.28
2022-12-25T17:27:38.805Z,13.27
2022-12-25T17:30:07.988Z,13.08
2022-12-25T17:32:35.710Z,12.86
2022-12-25T17:35:03.926Z,13.61
2022-12-25T17:37:32.337Z,13.28
2022-12-25T17:40:00.113Z,13.34
2022-12-25T17:42:29.196Z,12.80
2022-12-25T17:44:57.052Z,12.92
2022-12-25T17:47:24.989Z,12.96
2022-12-25T17:49:52.945Z,13.07
2022-12-25T17:52:20.657Z,13.73
2022-12-25T17:54:48.465Z,13.98
2022-12-25T17:57:16.206Z,13.51
2022-12-25T17:59:45.321Z,13.02
2022-12-25T18:02:13.224Z,13.30
2022-12-25T18:04:40.992Z,12.90
2022-12-25T18:07:08.765Z,13.23
2022-12-25T18:09:37.305Z,12.62
2022-12-25T18:12:05.723Z,13.44
2022-12-25T18:14:33.404Z,13.28
2022-12-25T18:17:02.481Z,13.01
2022-12-25T18:19:30.381Z,12.94
2022-12-25T18:21:58.107Z,12.47
2022-12-25T18:24:25.870Z,13.06
2022-12-25T18:26:53.635Z,12.81
2022-12-25T18:29:21.414Z,13.22
2022-12-25T18:31:49.400Z,13.13
2022-12-25T18:34:18.666Z,13.09
2022-12-25T18:36:46.393Z,13.08
2022-12-25T18:39:14.357Z,13.21
2022-12-25T18:41:56.018Z,13.19
2022-12-25T18:44:23.854Z,13.15
2022-12-25T18:46:51.687Z,12.75
2022-12-25T18:49:20.819Z,12.78
2022-12-25T18:51:50.433Z,11.91
2022-12-25T18:54:19.168Z,12.68
2022-12-25T18:56:52.150Z,12.09
2022-12-25T18:59:21.459Z,12.40
2022-12-25T19:01:49.367Z,12.26
2022-12-25T19:04:17.429Z,12.56
2022-12-25T19:06:46.596Z,12.13
2022-12-25T19:09:14.328Z,11.83
2022-12-25T19:11:46.740Z,12.09
2022-12-25T19:14:15.267Z,11.55
2022-12-25T19:16:43.055Z,12.31
2022-12-25T19:19:10.998Z,12.39
2022-12-25T19:21:38.948Z,11.73
2022-12-25T19:24:08.668Z,12.16
2022-12-25T19:26:37.588Z,12.23
2022-12-25T19:29:05.436Z,11.55
2022-12-25T19:31:33.374Z,11.98
2022-12-25T19:34:01.186Z,11.81
2022-12-25T19:36:28.971Z,12.25
2022-12-25T19:38:56.922Z,12.33
2022-12-25T19:41:26.105Z,12.14
2022-12-25T19:43:54.093Z,12.42
2022-12-25T19:46:23.850Z,12.32
2022-12-25T19:48:52.252Z,12.43
2022-12-25T19:51:24.057Z,11.98
2022-12-25T19:53:52.658Z,12.23
2022-12-25T19:56:20.675Z,12.19
2022-12-25T19:58:49.835Z,11.97
2022-12-25T20:01:20.359Z,12.30
2022-12-25T20:03:49.186Z,12.21
2022-12-25T20:06:23.155Z,11.99
2022-12-25T20:08:53.476Z,11.87
2022-12-25T20:11:23.414Z,11.46
2022-12-25T20:13:52.583Z,11.85
2022-12-25T20:16:20.454Z,11.80
2022-12-25T20:18:48.355Z,11.68
2022-12-25T20:21:18.658Z,11.81
2022-12-25T20:23:48.153Z,11.92
2022-12-25T20:26:18.232Z,11.99
2022-12-25T20:28:46.333Z,11.82
2022-12-25T20:31:17.542Z,11.93
2022-12-25T20:33:46.162Z,11.84
2022-12-25T20:36:14.554Z,11.92
2022-12-25T20:38:43.015Z,12.07
2022-12-25T20:41:29.395Z,12.03
2022-12-25T20:43:58.231Z,12.34
2022-12-25T20:46:27.635Z,12.21
2022-12-25T20:48:55.549Z,11.98
2022-12-25T20:51:24.921Z,12.38
2022-12-25T20:53:53.162Z,12.25
2022-12-25T20:56:23.840Z,11.70
2022-12-25T20:58:54.995Z,11.82
2022-12-25T21:01:22.989Z,11.61
2022-12-25T21:03:52.278Z,11.56
2022-12-25T21:06:20.203Z,11.36
2022-12-25T21:08:48.441Z,11.43
2022-12-25T21:11:17.582Z,11.74
2022-12-25T21:13:46.782Z,11.67
2022-12-25T21:16:18.334Z,11.56
2022-12-25T21:18:46.924Z,11.58
2022-12-25T21:21:16.183Z,11.63
2022-12-25T21:23:44.388Z,11.87
2022-12-25T21:26:13.887Z,12.03
2022-12-25T21:28:41.682Z,12.45
2022-12-25T21:31:10.331Z,12.31
2022-12-25T21:33:52.294Z,12.45
2022-12-25T21:36:25.177Z,12.51
2022-12-25T21:38:56.066Z,12.56
2022-12-25T21:41:24.650Z,12.32
2022-12-25T21:43:52.697Z,12.42
2022-12-25T21:46:20.816Z,12.47
2022-12-25T21:48:49.041Z,12.39
2022-12-25T21:51:35.994Z,12.69
2022-12-25T21:54:06.197Z,12.13
2022-12-25T21:56:43.172Z,11.83
2022-12-25T21:59:15.705Z,12.27
2022-12-25T22:01:44.763Z,11.89
2022-12-25T22:04:14.143Z,11.87
2022-12-25T22:07:00.315Z,12.19
2022-12-25T22:09:29.916Z,12.57
2022-12-25T22:12:16.107Z,12.53
2022-12-25T22:14:56.351Z,12.38
2022-12-25T22:17:43.861Z,12.12
2022-12-25T22:20:14.680Z,12.07
2022-12-25T22:22:42.822Z,12.23
2022-12-25T22:25:15.048Z,12.39
2022-12-25T22:27:44.537Z,12.10
2022-12-25T22:30:17.209Z,11.89
2022-12-25T22:32:49.095Z,12.01
2022-12-25T22:35:17.341Z,12.02
2022-12-25T22:37:45.875Z,12.47
2022-12-25T22:40:17.388Z,12.13
2022-12-25T22:42:45.500Z,12.12
2022-12-25T22:45:14.848Z,12.10
2022-12-25T22:47:42.959Z,12.19
2022-12-25T22:50:12.210Z,12.20
2022-12-25T22:52:40.851Z,12.11
2022-12-25T22:55:11.088Z,11.92
2022-12-25T22:57:40.229Z,12.34
2022-12-25T23:00:09.818Z,12.39
2022-12-25T23:02:37.869Z,11.50
2022-12-25T23:05:06.491Z,11.58
2022-12-25T23:07:34.243Z,12.12
2022-12-25T23:10:03.640Z,11.83
2022-12-25T23:12:48.842Z,12.13
2022-12-25T23:15:21.783Z,12.05
2022-12-25T23:18:07.232Z,11.44
2022-12-25T23:20:54.317Z,11.58
2022-12-25T23:23:41.513Z,11.45
2022-12-25T23:26:09.565Z,11.59
2022-12-25T23:28:56.004Z,11.73
2022-12-25T23:31:30.448Z,11.93
2022-12-25T23:33:58.622Z,11.81
2022-12-25T23:36:26.538Z,11.59
2022-12-25T23:38:54.426Z,11.51
2022-12-25T23:41:22.468Z,11.32
2022-12-25T23:43:50.335Z,11.70
2022-12-25T23:46:18.453Z,11.63
2022-12-25T23:48:47.670Z,11.50
2022-12-25T23:51:15.452Z,11.57
2022-12-25T23:53:43.330Z,11.84
2022-12-25T23:56:11.322Z,11.67
2022-12-25T23:58:39.329Z,11.46
